Time;durP1;ratioP1;P1;durP2;ratioP2;P2;SDS_P1;SDS_P2;PMS_P1;PMS_P2;Temp;Humidity;BMP_temperature;BMP_pressure;BME280_temperature;BME280_humidity;BME280_pressure;Samples;Min_cycle;Max_cycle;Signal;HPM_P1;HPM_P2
2021/12/29 00:01:06;;;;;;;12.20;10.90;;;9.40;99.90;;;;;;4995486;28;20211;-71
2021/12/29 00:03:35;;;;;;;12.67;10.47;;;9.40;99.90;;;;;;5026434;28;20614;-71
2021/12/29 00:06:02;;;;;;;11.63;10.43;;;9.40;99.90;;;;;;5000455;28;20207;-71
2021/12/29 00:08:29;;;;;;;12.47;10.57;;;9.40;99.90;;;;;;5007783;28;20212;-71
2021/12/29 00:10:57;;;;;;;11.77;10.37;;;9.40;99.90;;;;;;4985639;28;20199;-71
2021/12/29 00:13:26;;;;;;;11.83;10.63;;;9.30;99.90;;;;;;5010102;28;20208;-71
2021/12/29 00:15:57;;;;;;;13.73;11.80;;;9.30;99.90;;;;;;4997145;28;20203;-71
2021/12/29 00:18:25;;;;;;;12.90;11.57;;;9.30;99.90;;;;;;4992960;28;20223;-72
2021/12/29 00:20:54;;;;;;;14.13;12.73;;;9.30;99.90;;;;;;5016226;28;20188;-71
2021/12/29 00:23:22;;;;;;;12.70;11.50;;;9.30;99.90;;;;;;5010494;28;20218;-71
2021/12/29 00:26:12;;;;;;;14.03;12.73;;;9.30;99.90;;;;;;5001458;28;20198;-72
2021/12/29 00:28:39;;;;;;;13.40;12.10;;;9.30;99.90;;;;;;5012121;28;20230;-72
2021/12/29 00:31:06;;;;;;;13.13;11.83;;;9.30;99.90;;;;;;5017940;28;20202;-71
2021/12/29 00:33:58;;;;;;;12.33;11.23;;;9.30;99.90;;;;;;5022205;28;20202;-72
2021/12/29 00:36:45;;;;;;;12.27;11.17;;;9.30;99.90;;;;;;5031155;28;20210;-72
2021/12/29 00:39:35;;;;;;;12.67;11.57;;;9.40;99.90;;;;;;5008354;28;20191;-72
2021/12/29 00:42:21;;;;;;;13.10;11.10;;;9.30;99.90;;;;;;5020818;28;20198;-74
2021/12/29 00:45:09;;;;;;;12.83;11.53;;;9.30;99.90;;;;;;5023654;28;20199;-72
2021/12/29 00:47:38;;;;;;;14.37;12.97;;;9.30;99.90;;;;;;4989694;28;20222;-73
2021/12/29 00:50:08;;;;;;;14.13;12.70;;;9.30;99.90;;;;;;4996660;28;20208;-72
2021/12/29 00:52:37;;;;;;;15.73;14.00;;;9.30;99.90;;;;;;5019755;28;20175;-72
2021/12/29 00:55:33;;;;;;;15.83;14.13;;;9.30;99.90;;;;;;4991674;28;20192;-71
2021/12/29 00:58:01;;;;;;;15.53;14.03;;;9.30;99.90;;;;;;4997221;28;20616;-71
2021/12/29 01:00:29;;;;;;;14.80;13.30;;;9.30;99.90;;;;;;4992643;28;20195;-71
2021/12/29 01:02:56;;;;;;;16.07;14.37;;;9.30;99.90;;;;;;5016477;28;20654;-72
2021/12/29 01:05:24;;;;;;;15.93;14.30;;;9.30;99.90;;;;;;5009402;28;20209;-72
2021/12/29 01:07:52;;;;;;;15.20;13.80;;;9.30;99.90;;;;;;4988244;28;20228;-72
2021/12/29 01:10:20;;;;;;;14.87;13.30;;;9.30;99.90;;;;;;5010320;28;20555;-72
2021/12/29 01:12:53;;;;;;;15.77;14.17;;;9.30;99.90;;;;;;4997698;28;20219;-72
2021/12/29 01:15:27;;;;;;;15.30;13.90;;;9.30;99.90;;;;;;5003792;28;20574;-72
2021/12/29 01:17:56;;;;;;;14.77;13.37;;;9.30;99.90;;;;;;5011341;28;20226;-71
2021/12/29 01:20:24;;;;;;;15.90;14.30;;;9.30;99.90;;;;;;4992617;28;20208;-72
2021/12/29 01:22:53;;;;;;;15.10;13.53;;;9.30;99.90;;;;;;4991431;28;20208;-71
2021/12/29 01:25:21;;;;;;;15.43;13.90;;;9.30;99.90;;;;;;4998696;28;20200;-71
2021/12/29 01:27:49;;;;;;;15.13;13.53;;;9.40;99.90;;;;;;4989668;28;20231;-72
2021/12/29 01:30:33;;;;;;;16.40;14.80;;;9.30;99.90;;;;;;5030796;28;20219;-71
2021/12/29 01:33:05;;;;;;;17.20;15.13;;;9.30;99.90;;;;;;5019956;28;20202;-72
2021/12/29 01:35:33;;;;;;;17.97;14.57;;;9.30;99.90;;;;;;5015491;28;20176;-72
2021/12/29 01:38:03;;;;;;;15.07;13.47;;;9.30;99.90;;;;;;4993640;28;20228;-71
2021/12/29 01:40:31;;;;;;;14.70;12.87;;;9.30;99.90;;;;;;4992731;28;20279;-72
2021/12/29 01:43:00;;;;;;;14.70;12.67;;;9.40;99.90;;;;;;5000357;28;20211;-71
2021/12/29 01:45:34;;;;;;;13.20;11.83;;;9.40;99.90;;;;;;5017938;28;20193;-71
2021/12/29 01:48:03;;;;;;;11.37;10.20;;;9.40;99.90;;;;;;4998909;28;20229;-71
2021/12/29 01:50:31;;;;;;;10.13;9.20;;;9.40;99.90;;;;;;5000481;28;20206;-72
2021/12/29 01:53:03;;;;;;;11.83;9.63;;;9.40;99.90;;;;;;5019644;28;20200;-71
2021/12/29 01:55:31;;;;;;;9.97;8.97;;;9.40;99.90;;;;;;4997231;28;20202;-71
2021/12/29 01:58:00;;;;;;;9.30;8.33;;;9.40;99.90;;;;;;5004814;28;20235;-71
2021/12/29 02:00:30;;;;;;;7.90;7.10;;;9.30;99.90;;;;;;5014635;28;20200;-71
2021/12/29 02:02:57;;;;;;;8.17;7.30;;;9.30;99.90;;;;;;5014421;28;20207;-71
2021/12/29 02:05:25;;;;;;;9.23;7.67;;;9.30;99.90;;;;;;5003791;28;20218;-71
2021/12/29 02:07:52;;;;;;;8.93;7.93;;;9.30;99.90;;;;;;5003610;28;20224;-71
2021/12/29 02:10:22;;;;;;;8.20;7.33;;;9.30;99.90;;;;;;4993834;28;20215;-71
2021/12/29 02:12:51;;;;;;;8.30;7.17;;;9.30;99.90;;;;;;5008190;28;20196;-71
2021/12/29 02:15:19;;;;;;;8.23;7.43;;;9.30;99.90;;;;;;4994369;28;20200;-71
2021/12/29 02:18:12;;;;;;;8.70;7.67;;;9.30;99.90;;;;;;5001125;28;20223;-71
2021/12/29 02:20:43;;;;;;;9.93;7.37;;;9.30;99.90;;;;;;5006433;28;20208;-72
2021/12/29 02:23:16;;;;;;;8.77;7.23;;;9.30;99.90;;;;;;5015107;28;20195;-72
2021/12/29 02:25:50;;;;;;;10.13;7.90;;;9.30;99.90;;;;;;5010858;28;20366;-72
2021/12/29 02:28:22;;;;;;;7.63;6.93;;;9.30;99.90;;;;;;5010730;28;20211;-71
2021/12/29 02:30:50;;;;;;;8.93;8.03;;;9.30;99.90;;;;;;5019379;28;20222;-71
2021/12/29 02:33:17;;;;;;;8.37;7.37;;;9.20;99.90;;;;;;5010668;28;20192;-70
2021/12/29 02:35:46;;;;;;;8.13;7.13;;;9.30;99.90;;;;;;4997116;28;20204;-71
2021/12/29 02:38:26;;;;;;;8.97;8.07;;;9.20;99.90;;;;;;5006495;28;20219;-70
2021/12/29 02:40:56;;;;;;;9.50;8.17;;;9.20;99.90;;;;;;4999368;28;20199;-70
2021/12/29 02:43:24;;;;;;;10.83;8.43;;;9.20;99.90;;;;;;4991738;28;20199;-71
2021/12/29 02:45:58;;;;;;;9.90;8.83;;;9.20;99.90;;;;;;5010345;28;20219;-70
2021/12/29 02:48:27;;;;;;;11.80;8.30;;;9.20;99.90;;;;;;5008989;28;20228;-70
2021/12/29 02:50:58;;;;;;;9.53;8.57;;;9.30;99.90;;;;;;4984804;28;20208;-71
2021/12/29 02:53:26;;;;;;;8.73;7.83;;;9.30;99.90;;;;;;4989552;28;20553;-71
2021/12/29 02:55:54;;;;;;;12.27;8.90;;;9.30;99.90;;;;;;5019456;28;20211;-71
2021/12/29 02:58:23;;;;;;;9.30;7.37;;;9.30;99.90;;;;;;4989256;28;20222;-72
2021/12/29 03:00:52;;;;;;;8.13;7.33;;;9.30;99.90;;;;;;5018334;28;20203;-72
2021/12/29 03:03:21;;;;;;;9.90;8.33;;;9.30;99.90;;;;;;5007246;28;20195;-71
2021/12/29 03:05:50;;;;;;;10.77;7.93;;;9.40;99.90;;;;;;5018418;28;20215;-71
2021/12/29 03:08:20;;;;;;;11.63;8.27;;;9.40;99.90;;;;;;4992158;28;20216;-71
2021/12/29 03:10:52;;;;;;;9.93;7.50;;;9.40;99.90;;;;;;5019611;28;20200;-71
2021/12/29 03:13:20;;;;;;;9.27;7.53;;;9.40;99.90;;;;;;5003079;28;20568;-71
2021/12/29 03:15:47;;;;;;;10.37;7.50;;;9.40;99.90;;;;;;4991820;28;20204;-71
2021/12/29 03:18:15;;;;;;;8.63;7.27;;;9.40;99.90;;;;;;4998136;28;20586;-71
2021/12/29 03:20:43;;;;;;;7.37;6.07;;;9.40;99.90;;;;;;5009436;28;20658;-71
2021/12/29 03:23:11;;;;;;;7.33;6.10;;;9.40;99.90;;;;;;5030872;28;20192;-71
2021/12/29 03:25:39;;;;;;;7.27;6.07;;;9.40;99.90;;;;;;4993679;28;20208;-71
2021/12/29 03:28:07;;;;;;;5.73;5.10;;;9.40;99.90;;;;;;5018269;28;20236;-71
2021/12/29 03:30:38;;;;;;;6.13;5.43;;;9.40;99.90;;;;;;4995099;28;20560;-71
2021/12/29 03:33:07;;;;;;;8.33;6.07;;;9.40;99.90;;;;;;5023671;28;20658;-71
2021/12/29 03:35:38;;;;;;;6.43;5.83;;;9.40;99.90;;;;;;5000886;28;20700;-70
2021/12/29 03:38:08;;;;;;;7.73;6.80;;;9.40;99.90;;;;;;4997059;28;20223;-71
2021/12/29 03:40:36;;;;;;;8.20;7.33;;;9.40;99.90;;;;;;4995952;28;20220;-71
2021/12/29 03:43:07;;;;;;;9.67;8.03;;;9.30;99.90;;;;;;5005390;28;20206;-71
2021/12/29 03:45:35;;;;;;;9.80;8.30;;;9.40;99.90;;;;;;5006428;28;20208;-71
2021/12/29 03:48:02;;;;;;;8.83;7.83;;;9.30;99.90;;;;;;4988859;28;20232;-71
2021/12/29 03:50:29;;;;;;;11.90;9.30;;;9.40;99.90;;;;;;4987767;28;20204;-71
2021/12/29 03:52:58;;;;;;;12.03;10.07;;;9.40;99.90;;;;;;4987827;28;20207;-71
2021/12/29 03:55:25;;;;;;;12.00;9.83;;;9.30;99.90;;;;;;4992634;28;20272;-71
2021/12/29 03:57:53;;;;;;;13.70;11.40;;;9.40;99.90;;;;;;5010870;28;20251;-71
2021/12/29 04:00:21;;;;;;;14.30;11.83;;;9.30;99.90;;;;;;4990002;28;20212;-71
2021/12/29 04:02:49;;;;;;;14.33;12.30;;;9.30;99.90;;;;;;5006035;28;20208;-71
2021/12/29 04:05:19;;;;;;;13.83;11.77;;;9.30;99.90;;;;;;4991416;28;20577;-73
2021/12/29 04:07:47;;;;;;;14.87;11.73;;;9.30;99.90;;;;;;5015048;28;20220;-71
2021/12/29 04:10:15;;;;;;;14.37;11.20;;;9.30;99.90;;;;;;4994845;28;20199;-71
2021/12/29 04:12:43;;;;;;;14.53;11.50;;;9.30;99.90;;;;;;4990530;28;20214;-71
2021/12/29 04:15:12;;;;;;;12.47;11.17;;;9.40;99.90;;;;;;4997027;28;20212;-71
2021/12/29 04:17:42;;;;;;;11.80;10.60;;;9.40;99.90;;;;;;5012422;28;20211;-73
2021/12/29 04:22:58;;;;;;;12.37;10.50;;;9.40;99.90;;;;;;4997292;28;20188;-72
2021/12/29 04:25:26;;;;;;;15.73;10.73;;;9.30;99.90;;;;;;5000781;28;20214;-72
2021/12/29 04:27:55;;;;;;;11.67;10.47;;;9.30;99.90;;;;;;4993242;28;20234;-72
2021/12/29 04:30:25;;;;;;;12.53;11.17;;;9.30;99.90;;;;;;5004476;28;20205;-72
2021/12/29 04:32:55;;;;;;;15.17;13.57;;;9.30;99.90;;;;;;4998793;28;20210;-72
2021/12/29 04:35:25;;;;;;;14.97;13.30;;;9.30;99.90;;;;;;4994051;28;20187;-72
2021/12/29 04:37:53;;;;;;;18.77;14.80;;;9.20;99.90;;;;;;4997343;28;20227;-72
2021/12/29 04:40:20;;;;;;;20.77;15.50;;;9.30;99.90;;;;;;4997259;28;20202;-72
2021/12/29 04:42:48;;;;;;;18.03;15.10;;;9.20;99.90;;;;;;4993209;28;20221;-72
2021/12/29 04:45:16;;;;;;;16.97;14.60;;;9.30;99.90;;;;;;5016363;28;20203;-71
2021/12/29 04:47:46;;;;;;;16.13;14.27;;;9.20;99.90;;;;;;4997844;28;20234;-72
2021/12/29 04:50:27;;;;;;;17.50;14.10;;;9.10;99.90;;;;;;5009053;28;20193;-72
2021/12/29 04:52:57;;;;;;;15.77;14.00;;;9.20;99.90;;;;;;4991157;28;20200;-72
2021/12/29 04:55:25;;;;;;;16.63;13.40;;;9.20;99.90;;;;;;5012192;28;20199;-72
2021/12/29 04:57:52;;;;;;;16.57;14.63;;;9.20;99.90;;;;;;4993122;28;20223;-72
2021/12/29 05:00:29;;;;;;;17.37;13.83;;;9.20;99.90;;;;;;5007750;28;20194;-72
2021/12/29 05:02:58;;;;;;;16.73;14.23;;;9.30;99.90;;;;;;5010196;28;20199;-72
2021/12/29 05:05:40;;;;;;;19.73;14.00;;;9.10;99.90;;;;;;4995236;28;20226;-72
2021/12/29 05:08:25;;;;;;;17.40;14.27;;;9.20;99.90;;;;;;5012045;28;20227;-72
2021/12/29 05:10:55;;;;;;;15.87;12.20;;;9.20;99.90;;;;;;5000093;28;20575;-72
2021/12/29 05:13:24;;;;;;;16.00;12.57;;;9.20;99.90;;;;;;5020134;28;20567;-73
2021/12/29 05:15:51;;;;;;;14.23;9.90;;;9.20;99.90;;;;;;4997660;28;20681;-72
2021/12/29 05:18:18;;;;;;;8.57;7.63;;;9.10;99.90;;;;;;4997670;28;20232;-72
2021/12/29 05:20:47;;;;;;;8.27;7.33;;;9.10;99.90;;;;;;4990587;28;20226;-72
2021/12/29 05:23:14;;;;;;;7.47;6.13;;;9.10;99.90;;;;;;5020690;28;20195;-72
2021/12/29 05:25:42;;;;;;;9.50;7.13;;;9.10;99.90;;;;;;4999089;28;20230;-72
2021/12/29 05:28:09;;;;;;;11.13;6.73;;;9.10;99.90;;;;;;4994181;28;20226;-72
2021/12/29 05:30:37;;;;;;;10.83;6.43;;;9.20;99.90;;;;;;5015030;28;20202;-71
2021/12/29 05:33:05;;;;;;;7.13;5.30;;;9.10;99.90;;;;;;5020779;28;20591;-73
2021/12/29 05:35:32;;;;;;;6.13;4.90;;;9.10;99.90;;;;;;5001085;28;20555;-72
2021/12/29 05:38:01;;;;;;;7.20;4.97;;;9.10;99.90;;;;;;5015598;28;20317;-72
2021/12/29 05:40:29;;;;;;;8.33;5.63;;;9.10;99.90;;;;;;5018155;28;20198;-72
2021/12/29 05:42:57;;;;;;;7.53;5.00;;;9.10;99.90;;;;;;5016504;28;20195;-72
2021/12/29 05:45:27;;;;;;;5.50;3.93;;;9.00;99.90;;;;;;5009462;28;20720;-71
2021/12/29 05:47:56;;;;;;;6.03;3.97;;;9.30;99.90;;;;;;4996964;28;20227;-71
2021/12/29 05:50:26;;;;;;;8.50;4.07;;;9.70;99.90;;;;;;5004219;28;20200;-71
2021/12/29 05:52:55;;;;;;;4.37;3.00;;;10.00;99.90;;;;;;4996265;28;20204;-72
2021/12/29 05:55:24;;;;;;;4.97;3.00;;;10.10;99.90;;;;;;5006101;28;20689;-73
2021/12/29 05:57:54;;;;;;;4.87;3.10;;;9.70;99.90;;;;;;4993163;28;20243;-72
2021/12/29 06:00:23;;;;;;;3.53;3.10;;;9.50;99.90;;;;;;4990216;28;20584;-71
2021/12/29 06:02:51;;;;;;;5.90;3.47;;;9.50;99.90;;;;;;4978945;28;20191;-73
2021/12/29 06:05:19;;;;;;;6.03;4.97;;;9.40;99.90;;;;;;5011442;28;20211;-71
2021/12/29 06:08:04;;;;;;;7.50;5.47;;;9.30;99.90;;;;;;4994670;28;20227;-72
2021/12/29 06:10:33;;;;;;;9.10;6.63;;;9.30;99.90;;;;;;5008591;28;20210;-72
2021/12/29 06:13:01;;;;;;;10.17;7.33;;;9.30;99.90;;;;;;4996104;28;20211;-72
2021/12/29 06:15:32;;;;;;;12.03;8.93;;;9.20;99.90;;;;;;5012359;28;20211;-72
2021/12/29 06:18:00;;;;;;;10.67;7.73;;;9.20;99.90;;;;;;4989481;28;20223;-71
2021/12/29 06:20:28;;;;;;;12.33;9.90;;;9.20;99.90;;;;;;4994466;28;20260;-72
2021/12/29 06:22:55;;;;;;;12.30;9.90;;;9.10;99.90;;;;;;4976547;28;20196;-72
2021/12/29 06:25:52;;;;;;;12.37;10.60;;;9.10;99.90;;;;;;4996025;28;20275;-72
2021/12/29 06:28:19;;;;;;;13.73;11.73;;;9.10;99.90;;;;;;4982601;28;20228;-72
2021/12/29 06:30:47;;;;;;;17.17;13.20;;;9.00;99.90;;;;;;4986986;28;20314;-72
2021/12/29 06:33:23;;;;;;;15.23;12.37;;;9.00;99.90;;;;;;5006580;28;20184;-72
2021/12/29 06:35:51;;;;;;;17.10;13.27;;;9.00;99.90;;;;;;4990683;28;20202;-72
2021/12/29 06:38:18;;;;;;;18.03;13.60;;;9.10;99.90;;;;;;4988492;28;20224;-72
2021/12/29 06:40:46;;;;;;;17.97;13.20;;;9.00;99.90;;;;;;4987973;28;20215;-72
2021/12/29 06:43:14;;;;;;;16.73;12.63;;;9.00;99.90;;;;;;4996961;28;20204;-72
2021/12/29 06:45:42;;;;;;;16.57;11.47;;;9.00;99.90;;;;;;4989603;28;20222;-71
2021/12/29 06:48:10;;;;;;;16.20;12.27;;;9.00;99.90;;;;;;4995920;28;20215;-72
2021/12/29 06:50:37;;;;;;;16.10;11.60;;;9.00;99.90;;;;;;5012220;28;20202;-71
2021/12/29 06:53:04;;;;;;;14.17;11.40;;;9.00;99.90;;;;;;4993872;28;20208;-71
2021/12/29 06:55:32;;;;;;;14.50;11.10;;;9.00;99.90;;;;;;5012755;28;20654;-72
2021/12/29 06:57:59;;;;;;;13.60;11.00;;;9.00;99.90;;;;;;5011719;28;20590;-73
2021/12/29 07:00:29;;;;;;;14.10;10.77;;;9.00;99.90;;;;;;4984115;28;20227;-73
2021/12/29 07:02:57;;;;;;;15.27;11.37;;;9.00;99.90;;;;;;4994839;28;20215;-72
2021/12/29 07:05:25;;;;;;;14.17;11.77;;;9.10;99.90;;;;;;4993641;28;20220;-72
2021/12/29 07:07:54;;;;;;;14.93;11.00;;;9.00;99.90;;;;;;4990451;28;20243;-72
2021/12/29 07:10:45;;;;;;;16.20;11.47;;;9.00;99.90;;;;;;4991879;28;20853;-71
2021/12/29 07:13:18;;;;;;;13.73;11.70;;;9.00;99.90;;;;;;5001474;28;20207;-70
2021/12/29 07:15:50;;;;;;;13.87;10.90;;;8.90;99.90;;;;;;5011229;28;20191;-76
2021/12/29 07:18:17;;;;;;;18.87;13.43;;;9.00;99.90;;;;;;4991365;28;20218;-71
2021/12/29 07:20:47;;;;;;;16.93;13.03;;;9.00;99.90;;;;;;4985780;28;20598;-70
2021/12/29 07:23:15;;;;;;;19.77;14.10;;;9.00;99.90;;;;;;4992878;28;20207;-71
2021/12/29 07:25:54;;;;;;;20.37;14.13;;;9.00;99.90;;;;;;5005229;28;20995;-71
2021/12/29 07:28:26;;;;;;;23.53;15.60;;;9.00;99.90;;;;;;5008137;28;20218;-73
2021/12/29 07:31:14;;;;;;;20.60;15.23;;;9.00;99.90;;;;;;5000954;28;20559;-70
2021/12/29 07:33:42;;;;;;;22.67;15.83;;;9.00;99.90;;;;;;4985264;28;20200;-75
2021/12/29 07:36:11;;;;;;;19.87;14.23;;;9.00;99.90;;;;;;4991756;28;20218;-72
2021/12/29 07:38:38;;;;;;;24.47;16.70;;;9.00;99.90;;;;;;4986901;28;20212;-72
2021/12/29 07:41:06;;;;;;;22.13;15.57;;;9.00;99.90;;;;;;4984089;28;20204;-75
2021/12/29 07:43:35;;;;;;;22.83;16.40;;;9.00;99.90;;;;;;5010847;28;20198;-72
2021/12/29 07:46:02;;;;;;;25.83;17.93;;;8.90;99.90;;;;;;4990854;28;20207;-70
2021/12/29 07:48:31;;;;;;;27.87;18.63;;;8.90;99.90;;;;;;4987721;28;20224;-71
2021/12/29 07:51:00;;;;;;;26.60;18.40;;;9.00;99.90;;;;;;4987677;28;20210;-73
2021/12/29 07:53:27;;;;;;;24.87;18.70;;;9.00;99.90;;;;;;4986978;28;20216;-74
2021/12/29 07:55:55;;;;;;;22.13;14.50;;;9.00;99.90;;;;;;4989373;28;20204;-73
2021/12/29 07:58:23;;;;;;;22.93;16.87;;;9.00;99.90;;;;;;5002336;28;20598;-73
2021/12/29 08:00:51;;;;;;;23.13;17.53;;;9.00;99.90;;;;;;4999785;28;20662;-74
2021/12/29 08:03:18;;;;;;;24.73;17.03;;;9.00;99.90;;;;;;4995217;28;20204;-74
2021/12/29 08:05:48;;;;;;;23.97;17.00;;;9.00;99.90;;;;;;5016692;28;20207;-72
2021/12/29 08:08:16;;;;;;;25.53;16.80;;;9.00;99.90;;;;;;4987177;28;20224;-73
2021/12/29 08:10:43;;;;;;;22.70;16.03;;;8.90;99.90;;;;;;5008411;28;20246;-73
2021/12/29 08:13:10;;;;;;;23.73;16.90;;;8.90;99.90;;;;;;5004999;28;20188;-74
2021/12/29 08:15:38;;;;;;;26.70;18.60;;;8.90;99.90;;;;;;5009760;28;20215;-74
2021/12/29 08:18:25;;;;;;;25.20;17.93;;;8.90;99.90;;;;;;5005088;28;20219;-73
2021/12/29 08:20:54;;;;;;;27.67;19.13;;;8.90;99.90;;;;;;4986747;28;20204;-73
2021/12/29 08:23:21;;;;;;;25.73;17.80;;;8.90;99.90;;;;;;4995281;28;20278;-73
2021/12/29 08:25:48;;;;;;;28.13;19.43;;;8.90;99.90;;;;;;4992231;28;20207;-74
2021/12/29 08:28:17;;;;;;;26.87;19.20;;;8.90;99.90;;;;;;5009173;28;20228;-74
2021/12/29 08:30:45;;;;;;;26.63;19.10;;;8.90;99.90;;;;;;4996091;28;20527;-73
2021/12/29 08:33:12;;;;;;;30.90;20.30;;;8.90;99.90;;;;;;4995643;28;20211;-73
2021/12/29 08:35:44;;;;;;;28.73;20.27;;;8.90;99.90;;;;;;4993462;28;20199;-74
2021/12/29 08:38:17;;;;;;;30.93;21.57;;;9.00;99.90;;;;;;5001396;28;20239;-74
2021/12/29 08:40:45;;;;;;;31.47;21.30;;;9.00;99.90;;;;;;5007910;28;20204;-76
2021/12/29 08:43:20;;;;;;;31.77;22.20;;;8.90;99.90;;;;;;5010632;28;20672;-74
2021/12/29 08:45:48;;;;;;;34.97;22.10;;;8.90;99.90;;;;;;4992033;28;20195;-74
2021/12/29 08:48:28;;;;;;;30.43;21.43;;;8.90;99.90;;;;;;4987316;28;20234;-75
2021/12/29 08:51:00;;;;;;;32.00;22.03;;;8.90;99.90;;;;;;4991112;28;20199;-72
2021/12/29 08:53:32;;;;;;;34.13;22.20;;;8.90;99.90;;;;;;4992240;28;20210;-73
2021/12/29 08:55:59;;;;;;;36.33;22.10;;;8.90;99.90;;;;;;4995261;28;20192;-73
2021/12/29 08:58:28;;;;;;;33.67;21.40;;;8.90;99.90;;;;;;4984518;28;20219;-73
2021/12/29 09:01:05;;;;;;;29.40;21.03;;;8.90;99.90;;;;;;4987085;28;20199;-74
2021/12/29 09:03:33;;;;;;;32.63;21.97;;;8.90;99.90;;;;;;5010084;28;20198;-73
2021/12/29 09:06:00;;;;;;;30.33;21.47;;;8.90;99.90;;;;;;4989504;28;20207;-75
2021/12/29 09:08:27;;;;;;;32.03;22.87;;;9.00;99.90;;;;;;4987038;28;20225;-74
2021/12/29 09:10:56;;;;;;;34.37;21.97;;;8.90;99.90;;;;;;4990468;28;20208;-74
2021/12/29 09:13:24;;;;;;;32.47;21.83;;;8.90;99.90;;;;;;5013812;28;20195;-74
2021/12/29 09:15:56;;;;;;;32.60;21.43;;;8.90;99.90;;;;;;5000151;28;20200;-73
2021/12/29 09:18:41;;;;;;;35.10;22.63;;;8.90;99.90;;;;;;4986277;28;20216;-74
2021/12/29 09:21:13;;;;;;;34.43;23.07;;;8.90;99.90;;;;;;4992480;28;20279;-74
2021/12/29 09:24:05;;;;;;;32.93;22.00;;;9.00;99.90;;;;;;5009867;28;20196;-74
2021/12/29 09:26:51;;;;;;;31.60;21.33;;;9.00;99.90;;;;;;4991083;28;20211;-74
2021/12/29 09:29:18;;;;;;;33.70;23.17;;;9.00;99.90;;;;;;5005260;28;20195;-74
2021/12/29 09:31:46;;;;;;;36.70;24.20;;;9.00;99.90;;;;;;4987543;28;20217;-74
2021/12/29 09:34:14;;;;;;;34.03;23.63;;;9.00;99.90;;;;;;5009412;28;20196;-74
2021/12/29 09:36:42;;;;;;;34.97;23.90;;;9.00;99.90;;;;;;5014263;28;20195;-74
2021/12/29 09:39:09;;;;;;;32.67;22.63;;;9.10;99.90;;;;;;5002137;28;20188;-74
2021/12/29 09:41:37;;;;;;;33.40;23.37;;;9.00;99.90;;;;;;5009539;28;20211;-73
2021/12/29 09:44:09;;;;;;;38.03;23.77;;;9.10;99.90;;;;;;4992105;28;20658;-76
2021/12/29 09:46:37;;;;;;;34.90;23.33;;;9.10;99.90;;;;;;5020551;28;20195;-75
2021/12/29 09:49:04;;;;;;;36.40;24.63;;;9.10;99.90;;;;;;4989380;28;20224;-75
2021/12/29 09:51:34;;;;;;;36.83;22.83;;;9.10;99.90;;;;;;4987944;28;20208;-75
2021/12/29 09:54:09;;;;;;;32.23;23.87;;;9.10;99.90;;;;;;4993872;28;20203;-74
2021/12/29 09:56:36;;;;;;;38.80;25.50;;;9.20;99.90;;;;;;4995523;28;20199;-74
2021/12/29 09:59:05;;;;;;;33.63;23.17;;;9.10;99.90;;;;;;4992752;28;20223;-73
2021/12/29 10:01:33;;;;;;;36.13;24.90;;;9.10;99.90;;;;;;4994426;28;20208;-73
2021/12/29 10:04:00;;;;;;;35.03;24.10;;;9.20;99.90;;;;;;4994750;28;20203;-75
2021/12/29 10:06:28;;;;;;;37.20;24.70;;;9.20;99.90;;;;;;5005581;28;20188;-74
2021/12/29 10:09:12;;;;;;;37.73;23.63;;;9.20;99.90;;;;;;4990463;28;20220;-75
2021/12/29 10:11:40;;;;;;;32.90;23.60;;;9.20;99.90;;;;;;4988835;28;20204;-74
2021/12/29 10:14:12;;;;;;;31.40;22.97;;;9.20;99.90;;;;;;4994032;28;20207;-76
2021/12/29 10:16:44;;;;;;;33.17;23.80;;;9.20;99.90;;;;;;4991740;28;20200;-75
2021/12/29 10:19:13;;;;;;;32.00;23.17;;;9.20;99.90;;;;;;4984934;28;20566;-76
2021/12/29 10:21:44;;;;;;;31.27;21.77;;;9.30;99.90;;;;;;4996024;28;20215;-75
2021/12/29 10:24:12;;;;;;;37.60;23.67;;;9.30;99.90;;;;;;5021224;28;20203;-74
2021/12/29 10:26:43;;;;;;;32.70;23.10;;;9.40;99.90;;;;;;5013512;28;20207;-75
2021/12/29 10:29:15;;;;;;;33.53;23.67;;;9.40;99.90;;;;;;4986486;28;20215;-75
2021/12/29 10:31:45;;;;;;;34.67;22.93;;;9.40;99.90;;;;;;5004680;28;20568;-75
2021/12/29 10:34:14;;;;;;;32.80;23.03;;;9.40;99.90;;;;;;5017557;28;20199;-76
2021/12/29 10:36:47;;;;;;;31.20;22.10;;;9.50;99.90;;;;;;4999145;28;20195;-74
2021/12/29 10:39:17;;;;;;;29.33;21.57;;;9.50;99.90;;;;;;4997423;28;20685;-75
2021/12/29 10:41:47;;;;;;;30.43;22.17;;;9.50;99.90;;;;;;5005872;28;20203;-74
2021/12/29 10:44:17;;;;;;;28.87;20.73;;;9.80;99.90;;;;;;4987902;28;20674;-73
2021/12/29 10:46:44;;;;;;;26.93;20.57;;;9.80;99.90;;;;;;4993743;28;20211;-76
2021/12/29 10:49:12;;;;;;;28.20;20.43;;;9.70;99.90;;;;;;4983572;28;20222;-75
2021/12/29 10:51:42;;;;;;;26.07;19.80;;;9.80;99.90;;;;;;4993007;28;20210;-75
2021/12/29 10:54:13;;;;;;;27.43;19.97;;;9.60;99.90;;;;;;4988935;28;20203;-75
2021/12/29 10:57:06;;;;;;;26.07;19.60;;;9.60;99.90;;;;;;4993281;28;20195;-73
2021/12/29 10:59:41;;;;;;;25.90;19.60;;;9.60;99.90;;;;;;5007595;28;20195;-73
2021/12/29 11:02:10;;;;;;;26.27;18.97;;;9.60;99.90;;;;;;4991726;28;20864;-75
2021/12/29 11:04:37;;;;;;;27.93;18.87;;;9.60;99.90;;;;;;4989601;28;20200;-75
2021/12/29 11:07:07;;;;;;;23.73;18.17;;;9.70;99.90;;;;;;4991443;28;20227;-73
2021/12/29 11:09:49;;;;;;;23.47;17.63;;;9.60;99.90;;;;;;4983497;28;20485;-74
2021/12/29 11:12:16;;;;;;;22.50;16.60;;;9.60;99.90;;;;;;4990282;28;20208;-73
2021/12/29 11:14:52;;;;;;;25.37;18.10;;;9.80;99.90;;;;;;5003878;28;20215;-73
2021/12/29 11:17:26;;;;;;;22.90;16.13;;;9.80;99.90;;;;;;4993528;28;20778;-72
2021/12/29 11:19:58;;;;;;;18.57;15.20;;;10.00;99.90;;;;;;4986386;28;20207;-72
2021/12/29 11:22:28;;;;;;;17.77;14.00;;;9.80;99.90;;;;;;4991199;28;20200;-73
2021/12/29 11:24:58;;;;;;;17.70;14.03;;;9.90;99.90;;;;;;4992273;28;20200;-74
2021/12/29 11:27:27;;;;;;;18.03;13.97;;;9.90;99.90;;;;;;4998780;28;20226;-74
2021/12/29 11:29:58;;;;;;;19.17;13.57;;;9.90;99.90;;;;;;4987285;28;20215;-74
2021/12/29 11:32:30;;;;;;;16.57;12.93;;;9.80;99.90;;;;;;4985160;28;20191;-74
2021/12/29 11:35:08;;;;;;;16.93;12.47;;;9.90;99.90;;;;;;4985016;28;20576;-72
2021/12/29 11:37:37;;;;;;;15.67;12.13;;;9.90;99.90;;;;;;4990830;28;20216;-75
2021/12/29 11:40:07;;;;;;;15.00;9.90;;;9.90;99.90;;;;;;4991684;28;20210;-75
2021/12/29 11:42:34;;;;;;;14.37;11.53;;;10.80;99.90;;;;;;4986603;28;20206;-74
2021/12/29 11:45:04;;;;;;;14.80;11.23;;;10.40;99.90;;;;;;5009838;28;20595;-74
2021/12/29 11:47:37;;;;;;;12.07;9.87;;;10.40;99.90;;;;;;5006185;28;20219;-72
2021/12/29 11:50:06;;;;;;;11.37;10.17;;;10.20;99.90;;;;;;5005683;28;20230;-71
2021/12/29 11:52:45;;;;;;;12.43;10.10;;;10.10;99.90;;;;;;4994066;28;20288;-73
2021/12/29 11:55:15;;;;;;;15.07;10.57;;;9.90;99.90;;;;;;4988347;28;20195;-72
2021/12/29 11:57:44;;;;;;;11.50;9.60;;;9.90;99.90;;;;;;4990922;28;20247;-72
2021/12/29 12:00:17;;;;;;;12.43;9.97;;;10.00;99.90;;;;;;4983582;28;20204;-71
2021/12/29 12:02:45;;;;;;;11.93;9.33;;;10.00;99.90;;;;;;4993576;28;20662;-72
2021/12/29 12:05:15;;;;;;;12.23;9.47;;;10.00;99.90;;;;;;4992296;28;20207;-72
2021/12/29 12:07:44;;;;;;;12.17;9.30;;;10.00;99.90;;;;;;5007536;28;20230;-73
2021/12/29 12:10:14;;;;;;;12.43;9.80;;;9.90;99.90;;;;;;4990212;28;20242;-71
2021/12/29 12:12:47;;;;;;;12.70;9.63;;;10.00;99.90;;;;;;5008952;28;20195;-73
2021/12/29 12:15:15;;;;;;;11.10;8.67;;;10.00;99.90;;;;;;4992415;28;20666;-73
2021/12/29 12:17:54;;;;;;;11.17;8.77;;;10.00;99.90;;;;;;4990288;28;21068;-73
2021/12/29 12:20:39;;;;;;;10.30;9.07;;;10.00;99.90;;;;;;5003440;28;20207;-73
2021/12/29 12:23:15;;;;;;;11.97;9.07;;;10.00;99.90;;;;;;5024652;28;20266;-72
2021/12/29 12:25:43;;;;;;;11.23;8.83;;;9.90;99.90;;;;;;4991231;28;20203;-73
2021/12/29 12:28:16;;;;;;;11.10;8.60;;;9.90;99.90;;;;;;5000711;28;20224;-72
2021/12/29 12:30:55;;;;;;;10.47;9.23;;;9.90;99.90;;;;;;4986308;28;20733;-72
2021/12/29 12:33:26;;;;;;;12.77;9.30;;;9.90;99.90;;;;;;4986829;28;20540;-73
2021/12/29 12:35:55;;;;;;;12.33;10.10;;;9.80;99.90;;;;;;5011142;28;20203;-73
2021/12/29 12:38:39;;;;;;;12.97;10.30;;;9.80;99.90;;;;;;4986200;28;20231;-73
2021/12/29 12:41:08;;;;;;;17.10;10.83;;;9.90;99.90;;;;;;4975741;28;20208;-73
2021/12/29 12:43:49;;;;;;;13.07;9.80;;;9.80;99.90;;;;;;4992675;28;20641;-74
2021/12/29 12:46:29;;;;;;;11.70;9.67;;;9.90;99.90;;;;;;5011935;28;20191;-73
2021/12/29 12:48:57;;;;;;;11.10;10.00;;;9.90;99.90;;;;;;5001871;28;20222;-73
2021/12/29 12:51:24;;;;;;;11.40;9.87;;;9.90;99.90;;;;;;4994726;28;20207;-73
2021/12/29 12:53:52;;;;;;;14.60;10.33;;;9.90;99.90;;;;;;4991871;28;20208;-73
2021/12/29 12:56:22;;;;;;;13.60;10.03;;;9.80;99.90;;;;;;4975039;28;20207;-73
2021/12/29 12:58:52;;;;;;;10.40;9.30;;;9.80;99.90;;;;;;4977943;28;20228;-72
2021/12/29 13:01:23;;;;;;;12.90;8.70;;;9.80;99.90;;;;;;5012379;28;20196;-72